sensor_id;sensor_type;location;lat;lon;timestamp;P1;durP1;ratioP1;P2;durP2;ratioP2
36221;SDS011;22266;52.340;4.962;2022-08-01T00:00:03;2.75;;;2.50;;
36221;SDS011;22266;52.340;4.962;2022-08-01T00:02:35;3.50;;;3.50;;
36221;SDS011;22266;52.340;4.962;2022-08-01T00:05:05;4.50;;;3.50;;
36221;SDS011;22266;52.340;4.962;2022-08-01T00:07:36;4.25;;;4.25;;
36221;SDS011;22266;52.340;4.962;2022-08-01T00:10:03;5.50;;;3.75;;
36221;SDS011;22266;52.340;4.962;2022-08-01T00:12:31;3.75;;;3.75;;
36221;SDS011;22266;52.340;4.962;2022-08-01T00:14:58;5.50;;;5.25;;
36221;SDS011;22266;52.340;4.962;2022-08-01T00:17:24;7.00;;;6.00;;
36221;SDS011;22266;52.340;4.962;2022-08-01T00:19:51;3.00;;;3.00;;
36221;SDS011;22266;52.340;4.962;2022-08-01T00:22:17;3.25;;;2.00;;
36221;SDS011;22266;52.340;4.962;2022-08-01T00:24:44;3.25;;;3.00;;
36221;SDS011;22266;52.340;4.962;2022-08-01T00:27:10;3.25;;;3.00;;
36221;SDS011;22266;52.340;4.962;2022-08-01T00:29:37;7.00;;;5.50;;
36221;SDS011;22266;52.340;4.962;2022-08-01T00:32:23;2.00;;;2.00;;
36221;SDS011;22266;52.340;4.962;2022-08-01T00:34:50;4.25;;;4.25;;
36221;SDS011;22266;52.340;4.962;2022-08-01T00:37:17;3.00;;;3.00;;
36221;SDS011;22266;52.340;4.962;2022-08-01T00:39:43;3.75;;;3.25;;
36221;SDS011;22266;52.340;4.962;2022-08-01T00:42:10;2.50;;;2.50;;
36221;SDS011;22266;52.340;4.962;2022-08-01T00:44:38;2.00;;;2.00;;
36221;SDS011;22266;52.340;4.962;2022-08-01T00:47:06;3.50;;;3.50;;
36221;SDS011;22266;52.340;4.962;2022-08-01T00:49:33;3.00;;;3.00;;
36221;SDS011;22266;52.340;4.962;2022-08-01T00:52:00;3.00;;;3.00;;
36221;SDS011;22266;52.340;4.962;2022-08-01T00:54:31;1.00;;;1.00;;
36221;SDS011;22266;52.340;4.962;2022-08-01T00:56:57;2.00;;;2.00;;
36221;SDS011;22266;52.340;4.962;2022-08-01T00:59:24;2.00;;;2.00;;
36221;SDS011;22266;52.340;4.962;2022-08-01T01:01:52;2.00;;;2.00;;
36221;SDS011;22266;52.340;4.962;2022-08-01T01:04:19;3.75;;;3.00;;
36221;SDS011;22266;52.340;4.962;2022-08-01T01:15:22;2.00;;;2.00;;
36221;SDS011;22266;52.340;4.962;2022-08-01T01:18:24;1.75;;;1.75;;
36221;SDS011;22266;52.340;4.962;2022-08-01T01:29:21;2.25;;;1.75;;
36221;SDS011;22266;52.340;4.962;2022-08-01T01:31:54;1.75;;;1.75;;
36221;SDS011;22266;52.340;4.962;2022-08-01T01:34:23;2.75;;;2.00;;
36221;SDS011;22266;52.340;4.962;2022-08-01T01:36:54;1.00;;;1.00;;
36221;SDS011;22266;52.340;4.962;2022-08-01T01:39:22;1.50;;;1.00;;
36221;SDS011;22266;52.340;4.962;2022-08-01T01:41:51;3.25;;;2.75;;
36221;SDS011;22266;52.340;4.962;2022-08-01T01:44:21;2.50;;;2.50;;
36221;SDS011;22266;52.340;4.962;2022-08-01T01:46:48;2.00;;;2.00;;
36221;SDS011;22266;52.340;4.962;2022-08-01T01:49:16;1.25;;;1.25;;
36221;SDS011;22266;52.340;4.962;2022-08-01T01:51:48;3.75;;;2.50;;
36221;SDS011;22266;52.340;4.962;2022-08-01T01:54:28;1.75;;;1.75;;
36221;SDS011;22266;52.340;4.962;2022-08-01T01:56:59;2.00;;;2.00;;
36221;SDS011;22266;52.340;4.962;2022-08-01T01:59:28;2.25;;;2.00;;
36221;SDS011;22266;52.340;4.962;2022-08-01T02:01:58;3.50;;;3.50;;
36221;SDS011;22266;52.340;4.962;2022-08-01T02:04:35;3.25;;;3.25;;
36221;SDS011;22266;52.340;4.962;2022-08-01T02:07:03;3.50;;;2.75;;
36221;SDS011;22266;52.340;4.962;2022-08-01T02:09:33;3.75;;;3.75;;
36221;SDS011;22266;52.340;4.962;2022-08-01T02:12:01;2.25;;;2.25;;
36221;SDS011;22266;52.340;4.962;2022-08-01T02:14:34;3.00;;;3.00;;
36221;SDS011;22266;52.340;4.962;2022-08-01T02:17:01;4.50;;;3.00;;
36221;SDS011;22266;52.340;4.962;2022-08-01T02:19:30;4.00;;;4.00;;
36221;SDS011;22266;52.340;4.962;2022-08-01T02:22:14;2.00;;;2.00;;
36221;SDS011;22266;52.340;4.962;2022-08-01T02:24:50;7.50;;;3.00;;
36221;SDS011;22266;52.340;4.962;2022-08-01T02:27:23;1.50;;;1.50;;
36221;SDS011;22266;52.340;4.962;2022-08-01T02:29:53;3.00;;;3.00;;
36221;SDS011;22266;52.340;4.962;2022-08-01T02:32:36;3.25;;;3.25;;
36221;SDS011;22266;52.340;4.962;2022-08-01T02:35:07;2.00;;;2.00;;
36221;SDS011;22266;52.340;4.962;2022-08-01T02:37:38;2.75;;;2.75;;
36221;SDS011;22266;52.340;4.962;2022-08-01T02:40:12;2.00;;;2.00;;
36221;SDS011;22266;52.340;4.962;2022-08-01T02:42:42;2.50;;;2.50;;
36221;SDS011;22266;52.340;4.962;2022-08-01T02:45:11;2.00;;;2.00;;
36221;SDS011;22266;52.340;4.962;2022-08-01T02:47:39;3.00;;;3.00;;
36221;SDS011;22266;52.340;4.962;2022-08-01T02:50:08;4.00;;;4.00;;
36221;SDS011;22266;52.340;4.962;2022-08-01T02:52:38;3.00;;;3.00;;
36221;SDS011;22266;52.340;4.962;2022-08-01T02:55:07;3.00;;;3.00;;
36221;SDS011;22266;52.340;4.962;2022-08-01T02:57:36;2.00;;;2.00;;
36221;SDS011;22266;52.340;4.962;2022-08-01T03:00:17;2.50;;;2.00;;
36221;SDS011;22266;52.340;4.962;2022-08-01T03:02:45;1.50;;;1.00;;
36221;SDS011;22266;52.340;4.962;2022-08-01T03:05:14;0.75;;;0.75;;
36221;SDS011;22266;52.340;4.962;2022-08-01T03:07:43;1.25;;;1.25;;
36221;SDS011;22266;52.340;4.962;2022-08-01T03:10:13;0.00;;;0.00;;
36221;SDS011;22266;52.340;4.962;2022-08-01T03:12:42;1.00;;;1.00;;
36221;SDS011;22266;52.340;4.962;2022-08-01T03:15:13;1.50;;;1.50;;
36221;SDS011;22266;52.340;4.962;2022-08-01T03:17:42;2.00;;;2.00;;
36221;SDS011;22266;52.340;4.962;2022-08-01T03:20:12;0.25;;;0.25;;
36221;SDS011;22266;52.340;4.962;2022-08-01T03:22:41;0.00;;;0.00;;
36221;SDS011;22266;52.340;4.962;2022-08-01T03:25:09;1.00;;;1.00;;
36221;SDS011;22266;52.340;4.962;2022-08-01T03:27:38;1.25;;;0.75;;
36221;SDS011;22266;52.340;4.962;2022-08-01T03:30:08;2.00;;;2.00;;
36221;SDS011;22266;52.340;4.962;2022-08-01T03:32:36;5.00;;;5.00;;
36221;SDS011;22266;52.340;4.962;2022-08-01T03:35:03;4.00;;;4.00;;
36221;SDS011;22266;52.340;4.962;2022-08-01T03:37:46;6.00;;;6.00;;
36221;SDS011;22266;52.340;4.962;2022-08-01T03:40:38;5.00;;;3.00;;
36221;SDS011;22266;52.340;4.962;2022-08-01T03:43:15;2.50;;;2.00;;
36221;SDS011;22266;52.340;4.962;2022-08-01T03:45:48;3.00;;;3.00;;
36221;SDS011;22266;52.340;4.962;2022-08-01T03:48:18;1.50;;;1.25;;
36221;SDS011;22266;52.340;4.962;2022-08-01T03:50:50;1.00;;;1.00;;
36221;SDS011;22266;52.340;4.962;2022-08-01T03:53:20;0.50;;;0.50;;
36221;SDS011;22266;52.340;4.962;2022-08-01T03:55:50;1.00;;;1.00;;
36221;SDS011;22266;52.340;4.962;2022-08-01T03:58:19;0.00;;;0.00;;
36221;SDS011;22266;52.340;4.962;2022-08-01T04:00:47;0.50;;;0.50;;
36221;SDS011;22266;52.340;4.962;2022-08-01T04:03:14;1.00;;;1.00;;
36221;SDS011;22266;52.340;4.962;2022-08-01T04:05:41;0.75;;;0.75;;
36221;SDS011;22266;52.340;4.962;2022-08-01T04:08:08;1.00;;;1.00;;
36221;SDS011;22266;52.340;4.962;2022-08-01T04:10:35;0.25;;;0.25;;
36221;SDS011;22266;52.340;4.962;2022-08-01T04:13:02;1.00;;;1.00;;
36221;SDS011;22266;52.340;4.962;2022-08-01T04:15:29;1.00;;;0.00;;
36221;SDS011;22266;52.340;4.962;2022-08-01T04:17:56;1.00;;;1.00;;
36221;SDS011;22266;52.340;4.962;2022-08-01T04:20:23;0.75;;;0.75;;
36221;SDS011;22266;52.340;4.962;2022-08-01T04:22:49;2.50;;;2.50;;
36221;SDS011;22266;52.340;4.962;2022-08-01T04:25:19;1.00;;;1.00;;
36221;SDS011;22266;52.340;4.962;2022-08-01T04:27:51;1.75;;;1.75;;
36221;SDS011;22266;52.340;4.962;2022-08-01T04:30:26;0.75;;;0.75;;
36221;SDS011;22266;52.340;4.962;2022-08-01T04:32:55;1.00;;;1.00;;
36221;SDS011;22266;52.340;4.962;2022-08-01T04:35:25;1.75;;;1.75;;
36221;SDS011;22266;52.340;4.962;2022-08-01T04:38:14;3.00;;;3.00;;
36221;SDS011;22266;52.340;4.962;2022-08-01T04:40:45;3.00;;;2.50;;
36221;SDS011;22266;52.340;4.962;2022-08-01T04:43:12;2.00;;;1.50;;
36221;SDS011;22266;52.340;4.962;2022-08-01T04:45:40;2.75;;;2.00;;
36221;SDS011;22266;52.340;4.962;2022-08-01T04:48:09;2.75;;;2.75;;
36221;SDS011;22266;52.340;4.962;2022-08-01T04:50:37;2.00;;;2.00;;
36221;SDS011;22266;52.340;4.962;2022-08-01T04:53:03;0.00;;;0.00;;
36221;SDS011;22266;52.340;4.962;2022-08-01T04:55:30;1.75;;;1.75;;
36221;SDS011;22266;52.340;4.962;2022-08-01T04:57:57;3.00;;;3.00;;
36221;SDS011;22266;52.340;4.962;2022-08-01T05:00:24;3.50;;;3.50;;
36221;SDS011;22266;52.340;4.962;2022-08-01T05:02:51;6.50;;;6.50;;
36221;SDS011;22266;52.340;4.962;2022-08-01T05:05:17;5.75;;;5.75;;
36221;SDS011;22266;52.340;4.962;2022-08-01T05:07:44;5.50;;;5.50;;
36221;SDS011;22266;52.340;4.962;2022-08-01T05:10:11;4.50;;;4.50;;
36221;SDS011;22266;52.340;4.962;2022-08-01T05:12:38;4.25;;;3.50;;
36221;SDS011;22266;52.340;4.962;2022-08-01T05:15:04;5.25;;;3.25;;
36221;SDS011;22266;52.340;4.962;2022-08-01T05:17:40;2.50;;;2.25;;
36221;SDS011;22266;52.340;4.962;2022-08-01T05:20:08;6.75;;;5.00;;
36221;SDS011;22266;52.340;4.962;2022-08-01T05:22:35;3.50;;;2.50;;
36221;SDS011;22266;52.340;4.962;2022-08-01T05:25:02;3.00;;;3.00;;
36221;SDS011;22266;52.340;4.962;2022-08-01T05:27:31;2.50;;;2.50;;
36221;SDS011;22266;52.340;4.962;2022-08-01T05:29:59;3.75;;;3.75;;
36221;SDS011;22266;52.340;4.962;2022-08-01T05:32:25;3.25;;;2.00;;
36221;SDS011;22266;52.340;4.962;2022-08-01T05:34:52;4.00;;;3.25;;
36221;SDS011;22266;52.340;4.962;2022-08-01T05:37:18;4.00;;;3.50;;
36221;SDS011;22266;52.340;4.962;2022-08-01T05:39:45;5.00;;;5.00;;
36221;SDS011;22266;52.340;4.962;2022-08-01T05:42:11;3.75;;;3.75;;
36221;SDS011;22266;52.340;4.962;2022-08-01T05:44:38;3.00;;;2.00;;
36221;SDS011;22266;52.340;4.962;2022-08-01T05:47:04;3.00;;;3.00;;
36221;SDS011;22266;52.340;4.962;2022-08-01T05:49:30;4.75;;;3.00;;
36221;SDS011;22266;52.340;4.962;2022-08-01T05:51:57;2.25;;;2.25;;
36221;SDS011;22266;52.340;4.962;2022-08-01T05:54:24;2.25;;;1.50;;
36221;SDS011;22266;52.340;4.962;2022-08-01T05:56:50;3.75;;;2.75;;
36221;SDS011;22266;52.340;4.962;2022-08-01T05:59:17;4.50;;;3.50;;
36221;SDS011;22266;52.340;4.962;2022-08-01T06:01:43;3.25;;;3.25;;
36221;SDS011;22266;52.340;4.962;2022-08-01T06:04:10;3.00;;;3.00;;
36221;SDS011;22266;52.340;4.962;2022-08-01T06:06:36;3.25;;;3.25;;
36221;SDS011;22266;52.340;4.962;2022-08-01T06:09:03;3.00;;;3.00;;
36221;SDS011;22266;52.340;4.962;2022-08-01T06:11:29;5.75;;;4.00;;
36221;SDS011;22266;52.340;4.962;2022-08-01T06:13:56;3.00;;;3.00;;
36221;SDS011;22266;52.340;4.962;2022-08-01T06:16:22;2.00;;;2.00;;
36221;SDS011;22266;52.340;4.962;2022-08-01T06:18:49;4.25;;;4.00;;
36221;SDS011;22266;52.340;4.962;2022-08-01T06:21:21;3.00;;;2.00;;
36221;SDS011;22266;52.340;4.962;2022-08-01T06:23:47;3.00;;;3.00;;
36221;SDS011;22266;52.340;4.962;2022-08-01T06:26:16;2.75;;;1.75;;
36221;SDS011;22266;52.340;4.962;2022-08-01T06:28:44;3.00;;;3.00;;
36221;SDS011;22266;52.340;4.962;2022-08-01T06:31:10;2.00;;;2.00;;
36221;SDS011;22266;52.340;4.962;2022-08-01T06:33:38;2.00;;;2.00;;
36221;SDS011;22266;52.340;4.962;2022-08-01T06:36:05;1.50;;;1.50;;
36221;SDS011;22266;52.340;4.962;2022-08-01T06:38:31;2.00;;;2.00;;
36221;SDS011;22266;52.340;4.962;2022-08-01T06:40:58;3.25;;;1.00;;
36221;SDS011;22266;52.340;4.962;2022-08-01T06:43:24;1.00;;;1.00;;
36221;SDS011;22266;52.340;4.962;2022-08-01T06:45:51;3.00;;;2.25;;
36221;SDS011;22266;52.340;4.962;2022-08-01T06:48:17;7.25;;;3.25;;
36221;SDS011;22266;52.340;4.962;2022-08-01T06:50:44;2.75;;;2.75;;
36221;SDS011;22266;52.340;4.962;2022-08-01T06:53:10;2.25;;;2.00;;
36221;SDS011;22266;52.340;4.962;2022-08-01T06:55:36;2.00;;;2.00;;
36221;SDS011;22266;52.340;4.962;2022-08-01T06:58:03;2.50;;;1.00;;
36221;SDS011;22266;52.340;4.962;2022-08-01T07:00:29;2.75;;;2.75;;
36221;SDS011;22266;52.340;4.962;2022-08-01T07:02:58;4.00;;;2.00;;
36221;SDS011;22266;52.340;4.962;2022-08-01T07:05:26;2.00;;;2.00;;
36221;SDS011;22266;52.340;4.962;2022-08-01T07:07:53;1.25;;;1.00;;
36221;SDS011;22266;52.340;4.962;2022-08-01T07:10:19;2.00;;;2.00;;
36221;SDS011;22266;52.340;4.962;2022-08-01T07:12:46;4.00;;;2.00;;
36221;SDS011;22266;52.340;4.962;2022-08-01T07:15:12;3.50;;;2.25;;
36221;SDS011;22266;52.340;4.962;2022-08-01T07:17:41;2.50;;;1.00;;
36221;SDS011;22266;52.340;4.962;2022-08-01T07:20:08;0.50;;;0.50;;
36221;SDS011;22266;52.340;4.962;2022-08-01T07:22:39;1.00;;;1.00;;
36221;SDS011;22266;52.340;4.962;2022-08-01T07:25:06;1.75;;;0.75;;
36221;SDS011;22266;52.340;4.962;2022-08-01T07:27:34;2.50;;;2.00;;
36221;SDS011;22266;52.340;4.962;2022-08-01T07:30:03;0.75;;;0.75;;
36221;SDS011;22266;52.340;4.962;2022-08-01T07:32:30;1.50;;;1.50;;
36221;SDS011;22266;52.340;4.962;2022-08-01T07:34:57;1.00;;;1.00;;
36221;SDS011;22266;52.340;4.962;2022-08-01T07:37:25;2.25;;;1.00;;
36221;SDS011;22266;52.340;4.962;2022-08-01T07:40:12;1.25;;;1.00;;
36221;SDS011;22266;52.340;4.962;2022-08-01T07:42:38;3.75;;;2.00;;
36221;SDS011;22266;52.340;4.962;2022-08-01T07:45:04;1.50;;;1.50;;
36221;SDS011;22266;52.340;4.962;2022-08-01T07:47:31;1.75;;;1.75;;
36221;SDS011;22266;52.340;4.962;2022-08-01T07:50:01;2.25;;;2.25;;
36221;SDS011;22266;52.340;4.962;2022-08-01T07:52:29;1.25;;;1.25;;
36221;SDS011;22266;52.340;4.962;2022-08-01T07:54:56;1.75;;;1.75;;
36221;SDS011;22266;52.340;4.962;2022-08-01T07:57:23;1.50;;;1.50;;
36221;SDS011;22266;52.340;4.962;2022-08-01T07:59:50;1.00;;;1.00;;
36221;SDS011;22266;52.340;4.962;2022-08-01T08:02:17;2.00;;;2.00;;
36221;SDS011;22266;52.340;4.962;2022-08-01T08:04:44;1.00;;;1.00;;
36221;SDS011;22266;52.340;4.962;2022-08-01T08:07:14;1.00;;;1.00;;
36221;SDS011;22266;52.340;4.962;2022-08-01T08:09:41;1.50;;;1.50;;
36221;SDS011;22266;52.340;4.962;2022-08-01T08:12:08;1.50;;;1.50;;
36221;SDS011;22266;52.340;4.962;2022-08-01T08:14:35;5.50;;;1.25;;
36221;SDS011;22266;52.340;4.962;2022-08-01T08:17:02;0.75;;;0.50;;
36221;SDS011;22266;52.340;4.962;2022-08-01T08:19:30;1.00;;;1.00;;
36221;SDS011;22266;52.340;4.962;2022-08-01T08:22:04;1.00;;;1.00;;
36221;SDS011;22266;52.340;4.962;2022-08-01T08:24:32;0.75;;;0.75;;
36221;SDS011;22266;52.340;4.962;2022-08-01T08:26:59;1.00;;;1.00;;
36221;SDS011;22266;52.340;4.962;2022-08-01T08:29:27;1.75;;;1.00;;
36221;SDS011;22266;52.340;4.962;2022-08-01T08:31:56;2.25;;;2.00;;
36221;SDS011;22266;52.340;4.962;2022-08-01T08:34:24;2.00;;;1.00;;
36221;SDS011;22266;52.340;4.962;2022-08-01T08:36:52;2.00;;;2.00;;
36221;SDS011;22266;52.340;4.962;2022-08-01T08:39:18;2.25;;;1.75;;
36221;SDS011;22266;52.340;4.962;2022-08-01T08:41:46;1.50;;;1.00;;
36221;SDS011;22266;52.340;4.962;2022-08-01T08:44:14;2.00;;;2.00;;
36221;SDS011;22266;52.340;4.962;2022-08-01T08:46:43;2.75;;;2.00;;
36221;SDS011;22266;52.340;4.962;2022-08-01T08:49:11;1.75;;;1.75;;
36221;SDS011;22266;52.340;4.962;2022-08-01T08:51:42;1.75;;;1.75;;
36221;SDS011;22266;52.340;4.962;2022-08-01T08:54:10;3.00;;;2.50;;
36221;SDS011;22266;52.340;4.962;2022-08-01T08:56:39;2.50;;;1.50;;
36221;SDS011;22266;52.340;4.962;2022-08-01T08:59:07;1.00;;;0.00;;
36221;SDS011;22266;52.340;4.962;2022-08-01T09:01:34;2.00;;;1.00;;
36221;SDS011;22266;52.340;4.962;2022-08-01T09:04:04;2.00;;;1.25;;
36221;SDS011;22266;52.340;4.962;2022-08-01T09:06:31;3.00;;;3.00;;
36221;SDS011;22266;52.340;4.962;2022-08-01T09:08:58;1.75;;;1.75;;
36221;SDS011;22266;52.340;4.962;2022-08-01T09:11:25;2.25;;;2.25;;
36221;SDS011;22266;52.340;4.962;2022-08-01T09:14:06;2.00;;;2.00;;
36221;SDS011;22266;52.340;4.962;2022-08-01T09:16:37;3.75;;;1.50;;
36221;SDS011;22266;52.340;4.962;2022-08-01T09:19:15;2.75;;;1.75;;
36221;SDS011;22266;52.340;4.962;2022-08-01T09:22:08;2.75;;;2.75;;
36221;SDS011;22266;52.340;4.962;2022-08-01T09:24:36;2.25;;;2.25;;
36221;SDS011;22266;52.340;4.962;2022-08-01T09:27:15;2.25;;;2.25;;
36221;SDS011;22266;52.340;4.962;2022-08-01T09:29:47;3.00;;;2.25;;
36221;SDS011;22266;52.340;4.962;2022-08-01T09:32:26;1.00;;;1.00;;
36221;SDS011;22266;52.340;4.962;2022-08-01T09:43:25;3.00;;;2.50;;
36221;SDS011;22266;52.340;4.962;2022-08-01T09:45:54;3.00;;;3.00;;
36221;SDS011;22266;52.340;4.962;2022-08-01T09:48:23;2.00;;;2.00;;
36221;SDS011;22266;52.340;4.962;2022-08-01T09:50:54;3.00;;;1.00;;
36221;SDS011;22266;52.340;4.962;2022-08-01T09:53:26;1.25;;;1.25;;
36221;SDS011;22266;52.340;4.962;2022-08-01T09:56:08;2.25;;;2.25;;
36221;SDS011;22266;52.340;4.962;2022-08-01T09:58:54;2.00;;;2.00;;
36221;SDS011;22266;52.340;4.962;2022-08-01T10:01:28;3.00;;;3.00;;
36221;SDS011;22266;52.340;4.962;2022-08-01T10:06:46;1.25;;;1.25;;
36221;SDS011;22266;52.340;4.962;2022-08-01T10:09:31;1.25;;;1.25;;
36221;SDS011;22266;52.340;4.962;2022-08-01T10:12:05;2.50;;;1.25;;
36221;SDS011;22266;52.340;4.962;2022-08-01T10:14:34;1.00;;;1.00;;
36221;SDS011;22266;52.340;4.962;2022-08-01T10:17:02;1.00;;;1.00;;
36221;SDS011;22266;52.340;4.962;2022-08-01T10:19:34;2.00;;;0.75;;
36221;SDS011;22266;52.340;4.962;2022-08-01T10:22:01;2.00;;;2.00;;
36221;SDS011;22266;52.340;4.962;2022-08-01T10:24:36;1.00;;;1.00;;
36221;SDS011;22266;52.340;4.962;2022-08-01T10:27:08;1.75;;;1.75;;
36221;SDS011;22266;52.340;4.962;2022-08-01T10:29:41;1.50;;;1.00;;
36221;SDS011;22266;52.340;4.962;2022-08-01T10:32:32;2.00;;;2.00;;
36221;SDS011;22266;52.340;4.962;2022-08-01T10:35:05;2.00;;;2.00;;
36221;SDS011;22266;52.340;4.962;2022-08-01T10:37:40;2.00;;;2.00;;
36221;SDS011;22266;52.340;4.962;2022-08-01T10:40:18;0.25;;;0.25;;
36221;SDS011;22266;52.340;4.962;2022-08-01T10:42:55;1.50;;;1.50;;
36221;SDS011;22266;52.340;4.962;2022-08-01T10:45:22;1.00;;;1.00;;
36221;SDS011;22266;52.340;4.962;2022-08-01T10:47:59;1.00;;;1.00;;
36221;SDS011;22266;52.340;4.962;2022-08-01T10:50:33;1.50;;;1.50;;
36221;SDS011;22266;52.340;4.962;2022-08-01T10:58:25;2.25;;;2.00;;
36221;SDS011;22266;52.340;4.962;2022-08-01T11:03:41;0.75;;;0.75;;
36221;SDS011;22266;52.340;4.962;2022-08-01T11:17:32;1.00;;;1.00;;
36221;SDS011;22266;52.340;4.962;2022-08-01T11:20:09;1.25;;;1.25;;
36221;SDS011;22266;52.340;4.962;2022-08-01T11:23:15;0.50;;;0.00;;
36221;SDS011;22266;52.340;4.962;2022-08-01T11:28:32;2.00;;;1.00;;
36221;SDS011;22266;52.340;4.962;2022-08-01T11:41:39;2.75;;;2.00;;
36221;SDS011;22266;52.340;4.962;2022-08-01T11:44:08;2.00;;;2.00;;
36221;SDS011;22266;52.340;4.962;2022-08-01T11:49:47;3.00;;;1.00;;
36221;SDS011;22266;52.340;4.962;2022-08-01T11:52:24;1.00;;;1.00;;
36221;SDS011;22266;52.340;4.962;2022-08-01T11:54:53;1.00;;;1.00;;
36221;SDS011;22266;52.340;4.962;2022-08-01T11:57:29;1.75;;;1.25;;
36221;SDS011;22266;52.340;4.962;2022-08-01T12:00:03;1.00;;;1.00;;
36221;SDS011;22266;52.340;4.962;2022-08-01T12:02:40;2.00;;;2.00;;
36221;SDS011;22266;52.340;4.962;2022-08-01T12:05:08;2.00;;;2.00;;
36221;SDS011;22266;52.340;4.962;2022-08-01T12:07:39;3.00;;;1.50;;
36221;SDS011;22266;52.340;4.962;2022-08-01T12:10:14;0.75;;;0.75;;
36221;SDS011;22266;52.340;4.962;2022-08-01T12:12:43;3.25;;;2.50;;
36221;SDS011;22266;52.340;4.962;2022-08-01T12:15:16;2.50;;;1.00;;
36221;SDS011;22266;52.340;4.962;2022-08-01T12:17:45;1.00;;;1.00;;
36221;SDS011;22266;52.340;4.962;2022-08-01T12:20:24;1.50;;;1.50;;
36221;SDS011;22266;52.340;4.962;2022-08-01T12:23:06;2.00;;;2.00;;
36221;SDS011;22266;52.340;4.962;2022-08-01T12:25:35;1.00;;;1.00;;
36221;SDS011;22266;52.340;4.962;2022-08-01T12:28:03;1.00;;;1.00;;
36221;SDS011;22266;52.340;4.962;2022-08-01T12:30:31;1.50;;;0.75;;
36221;SDS011;22266;52.340;4.962;2022-08-01T12:33:06;1.00;;;1.00;;
36221;SDS011;22266;52.340;4.962;2022-08-01T12:35:35;2.00;;;1.25;;
36221;SDS011;22266;52.340;4.962;2022-08-01T12:38:03;1.00;;;1.00;;
36221;SDS011;22266;52.340;4.962;2022-08-01T12:40:41;1.75;;;1.50;;
36221;SDS011;22266;52.340;4.962;2022-08-01T12:43:14;1.00;;;1.00;;
36221;SDS011;22266;52.340;4.962;2022-08-01T12:45:54;0.75;;;0.75;;
36221;SDS011;22266;52.340;4.962;2022-08-01T12:48:23;4.00;;;1.75;;
36221;SDS011;22266;52.340;4.962;2022-08-01T12:50:51;3.00;;;2.00;;
36221;SDS011;22266;52.340;4.962;2022-08-01T12:53:18;2.00;;;2.00;;
36221;SDS011;22266;52.340;4.962;2022-08-01T12:55:50;2.75;;;1.25;;
36221;SDS011;22266;52.340;4.962;2022-08-01T12:58:32;2.75;;;2.75;;
36221;SDS011;22266;52.340;4.962;2022-08-01T13:01:03;3.75;;;3.25;;
36221;SDS011;22266;52.340;4.962;2022-08-01T13:03:31;1.25;;;1.25;;
36221;SDS011;22266;52.340;4.962;2022-08-01T13:05:57;1.50;;;1.00;;
36221;SDS011;22266;52.340;4.962;2022-08-01T13:08:34;2.00;;;2.00;;
36221;SDS011;22266;52.340;4.962;2022-08-01T13:11:01;1.75;;;1.75;;
36221;SDS011;22266;52.340;4.962;2022-08-01T13:13:46;3.00;;;1.50;;
36221;SDS011;22266;52.340;4.962;2022-08-01T13:16:18;2.75;;;1.75;;
36221;SDS011;22266;52.340;4.962;2022-08-01T13:19:07;1.25;;;0.75;;
36221;SDS011;22266;52.340;4.962;2022-08-01T13:21:33;2.25;;;2.25;;
36221;SDS011;22266;52.340;4.962;2022-08-01T13:24:28;2.50;;;2.50;;
36221;SDS011;22266;52.340;4.962;2022-08-01T13:26:56;0.75;;;0.75;;
36221;SDS011;22266;52.340;4.962;2022-08-01T13:29:29;1.50;;;1.50;;
36221;SDS011;22266;52.340;4.962;2022-08-01T13:32:01;1.00;;;1.00;;
36221;SDS011;22266;52.340;4.962;2022-08-01T13:35:05;1.00;;;1.00;;
36221;SDS011;22266;52.340;4.962;2022-08-01T13:37:34;0.50;;;0.50;;
36221;SDS011;22266;52.340;4.962;2022-08-01T13:40:04;1.00;;;1.00;;
36221;SDS011;22266;52.340;4.962;2022-08-01T13:42:35;1.00;;;1.00;;
36221;SDS011;22266;52.340;4.962;2022-08-01T13:45:03;4.00;;;1.25;;
36221;SDS011;22266;52.340;4.962;2022-08-01T13:47:40;0.50;;;0.25;;
36221;SDS011;22266;52.340;4.962;2022-08-01T13:50:28;1.00;;;1.00;;
36221;SDS011;22266;52.340;4.962;2022-08-01T13:52:54;2.75;;;2.00;;
36221;SDS011;22266;52.340;4.962;2022-08-01T13:55:21;1.00;;;1.00;;
36221;SDS011;22266;52.340;4.962;2022-08-01T13:57:47;2.00;;;2.00;;
36221;SDS011;22266;52.340;4.962;2022-08-01T14:00:13;1.00;;;1.00;;
36221;SDS011;22266;52.340;4.962;2022-08-01T14:02:40;2.00;;;1.75;;
36221;SDS011;22266;52.340;4.962;2022-08-01T14:05:07;2.00;;;2.00;;
36221;SDS011;22266;52.340;4.962;2022-08-01T14:07:33;1.50;;;1.50;;
36221;SDS011;22266;52.340;4.962;2022-08-01T14:10:00;2.25;;;1.00;;
36221;SDS011;22266;52.340;4.962;2022-08-01T14:12:44;1.00;;;1.00;;
36221;SDS011;22266;52.340;4.962;2022-08-01T14:15:11;2.00;;;1.00;;
36221;SDS011;22266;52.340;4.962;2022-08-01T14:17:38;1.00;;;1.00;;
36221;SDS011;22266;52.340;4.962;2022-08-01T14:20:12;2.00;;;2.00;;
36221;SDS011;22266;52.340;4.962;2022-08-01T14:22:39;2.25;;;0.75;;
36221;SDS011;22266;52.340;4.962;2022-08-01T14:25:06;1.00;;;1.00;;
36221;SDS011;22266;52.340;4.962;2022-08-01T14:27:34;2.00;;;2.00;;
36221;SDS011;22266;52.340;4.962;2022-08-01T14:30:05;2.00;;;1.00;;
36221;SDS011;22266;52.340;4.962;2022-08-01T14:32:32;1.25;;;1.25;;
36221;SDS011;22266;52.340;4.962;2022-08-01T14:35:03;1.00;;;1.00;;
36221;SDS011;22266;52.340;4.962;2022-08-01T14:37:31;1.25;;;1.00;;
36221;SDS011;22266;52.340;4.962;2022-08-01T14:40:04;1.25;;;1.25;;
36221;SDS011;22266;52.340;4.962;2022-08-01T14:42:35;1.00;;;1.00;;
36221;SDS011;22266;52.340;4.962;2022-08-01T14:45:03;1.00;;;1.00;;
36221;SDS011;22266;52.340;4.962;2022-08-01T14:47:35;1.00;;;1.00;;
36221;SDS011;22266;52.340;4.962;2022-08-01T14:50:03;0.50;;;0.50;;
36221;SDS011;22266;52.340;4.962;2022-08-01T14:52:32;2.00;;;2.00;;
36221;SDS011;22266;52.340;4.962;2022-08-01T14:54:59;3.00;;;1.00;;
36221;SDS011;22266;52.340;4.962;2022-08-01T14:57:26;1.00;;;1.00;;
36221;SDS011;22266;52.340;4.962;2022-08-01T14:59:53;1.00;;;1.00;;
36221;SDS011;22266;52.340;4.962;2022-08-01T15:02:20;1.00;;;1.00;;
36221;SDS011;22266;52.340;4.962;2022-08-01T15:04:47;1.00;;;1.00;;
36221;SDS011;22266;52.340;4.962;2022-08-01T15:07:14;1.50;;;1.50;;
36221;SDS011;22266;52.340;4.962;2022-08-01T15:09:42;1.00;;;1.00;;
36221;SDS011;22266;52.340;4.962;2022-08-01T15:12:09;1.00;;;1.00;;
36221;SDS011;22266;52.340;4.962;2022-08-01T15:14:36;0.25;;;0.25;;
36221;SDS011;22266;52.340;4.962;2022-08-01T15:17:22;1.25;;;1.25;;
36221;SDS011;22266;52.340;4.962;2022-08-01T15:19:55;1.00;;;1.00;;
36221;SDS011;22266;52.340;4.962;2022-08-01T15:22:23;2.50;;;2.50;;
36221;SDS011;22266;52.340;4.962;2022-08-01T15:24:51;2.00;;;2.00;;
36221;SDS011;22266;52.340;4.962;2022-08-01T15:27:23;1.00;;;1.00;;
36221;SDS011;22266;52.340;4.962;2022-08-01T15:29:50;3.25;;;2.00;;
36221;SDS011;22266;52.340;4.962;2022-08-01T15:32:17;1.00;;;1.00;;
36221;SDS011;22266;52.340;4.962;2022-08-01T15:34:44;1.00;;;1.00;;
36221;SDS011;22266;52.340;4.962;2022-08-01T15:37:11;1.00;;;1.00;;
36221;SDS011;22266;52.340;4.962;2022-08-01T15:39:38;1.00;;;1.00;;
36221;SDS011;22266;52.340;4.962;2022-08-01T15:42:06;3.25;;;2.00;;
36221;SDS011;22266;52.340;4.962;2022-08-01T15:44:35;1.75;;;1.75;;
36221;SDS011;22266;52.340;4.962;2022-08-01T15:47:02;1.00;;;1.00;;
36221;SDS011;22266;52.340;4.962;2022-08-01T15:49:29;1.00;;;1.00;;
36221;SDS011;22266;52.340;4.962;2022-08-01T15:51:56;1.25;;;1.25;;
36221;SDS011;22266;52.340;4.962;2022-08-01T15:54:23;1.75;;;1.75;;
36221;SDS011;22266;52.340;4.962;2022-08-01T15:56:50;0.00;;;0.00;;
36221;SDS011;22266;52.340;4.962;2022-08-01T15:59:16;1.00;;;1.00;;
36221;SDS011;22266;52.340;4.962;2022-08-01T16:01:43;0.00;;;0.00;;
36221;SDS011;22266;52.340;4.962;2022-08-01T16:04:10;2.00;;;1.00;;
36221;SDS011;22266;52.340;4.962;2022-08-01T16:06:36;1.00;;;1.00;;
36221;SDS011;22266;52.340;4.962;2022-08-01T16:09:03;2.75;;;1.00;;